Espace membre
Imprimable
Challenges > Delhalle - Butgenbach, 30/04/2011, BEL - Rund um den See
Liste des rapports > Delhalle - 21,1km - Classement
Recherche: Page: [1]
367 Entrées
 
Les réclamations ne sont plus acceptées, les résultats sont considérés comme définitifs.
Catégorie
PosNrNomAgeIOCLigueEquipeRéelTempsTkmMoy.RangNomPtsLocalité
1.2013HILGER-SCHÜTZ Jerome36BELAC EIFEL/SC BÜT1:12:111:12:123:27 17.451sen1100SCHOENBERG
2.2352MATIRI Leonard32BELAC EIFEL1:14:051:14:053:32 17.012sen1072
3.4VANDERBECK Yves43BELRIWARONVAU1:14:451:14:453:34 16.861ve11062MALONNE
4.2016KALK Nils28BELTRIATHLON TEAM 1:16:291:16:303:39 16.473sen1037KETTENIS
5.644POCHET Anthony28BEL1:16:551:16:563:40 16.384sen1030BEAURAING
6.2237KAERS Pascal39BELVALDCLA - DARING C1:17:071:17:073:41 16.345sen1026BEGIJNENDIJK
7.9PASQUE Cedric32BELRRTC1:17:101:17:103:41 16.336sen1025BOUFFIOULX
8.2063LANGER Pascal34BEL1:17:401:17:403:42 16.227sen1017ELSENBORN
9.342LOMBART Frederic44BELOCAN1:19:191:19:193:47 15.892ve1995GEMBLOUX
10.2058SMOLKA Bernd38BELSV BERGWACHT RO1:20:151:20:153:50 15.708sen982
11.2069LANGER Stephan35BEL1:20:291:20:293:50 15.669sen978ELSENBORN
12.2015JANSEN Volker41DEULG MÜTZENICH1:20:551:20:553:52 15.573ve1971MONSCHAU
13.2256RENARD Arnaud26BELACO1:21:201:21:213:53 15.4910sen965REMICOURT
14.900STOUFFS Adrien19BELRONVAU1:21:541:21:543:54 15.391esp957OTTIGNIES
15.2045TOELANTS Stefan39BEL1:22:131:22:163:56 15.3211sen952BRASSCHAAT
16.2041FICKERS Daniel45BELSC BUTGENBACH1:22:321:22:333:56 15.264ve1947
17.2376SONNET Horst48ZMBSCBTRI1:22:481:22:493:57 15.215ve1942BÜTGENBACH/BUTGENBACH
18.5FVANDROOGENBROECK Virginie40BELCABWTRAINING 71:23:061:23:063:58 15.161ai1938BRAINE L'ALLEUD
19.6BULTOT Christian53BELARCHJOGGPLUS1:23:091:23:093:58 15.151ve2937SCHALTIN
20.291PAULY Michel50BELHERV1:23:301:23:313:59 15.092ve2931BOLLAND
21.2380SZWAGRUN Adam54BELENERGYTRI1:23:431:23:464:00 15.043ve2927WAIMES
22.11DUBOIS Michel54BELHERV1:24:021:24:024:01 15.004ve2923WELKENRAEDT
23.2020MERTENS Jürgen47BELLAC EUPEN1:24:331:24:334:02 14.906ve1915EUPEN
24.406NEYMAN Eric43BEL1:24:531:24:544:03 14.847ve1910HERON
25.2348SCHWALL Stephen28BELEMMELS1:24:521:24:554:03 14.8412sen910
26.2023PAUKEN Ralf44DEUSV BERGWACHT RO1:25:241:25:244:04 14.758ve1903MONSCHAU
27.228MARCHAL Yves41BELRUN WILD1:26:441:26:454:08 14.539ve1885VEDRIN
28.2292DEWALLEF Pascal Jean37BELTCBM1:26:551:27:104:10 14.4613sen882BLEGNY
29.230SANCHEZ POSADA Luis51BELUSBWCACE1:27:141:27:144:10 14.455ve2877RHODE ST GENESE
30.975LEONARD Marc42BELFCHA1:27:101:27:154:10 14.4410ve1878VILLERS-LE-PEUPLIER
31.2365LOPEZ NAVA Didier401:27:101:27:214:10 14.4311ve1877
32.2289MORTEZAI Azad39BELEUPEN1:27:291:27:314:11 14.4014sen872
33.2212CREMER Roger61BELSCBUT1:27:461:27:474:11 14.351ve3868WAIMES
34.2011HEINEN Danny39BELFC BÜTGENBACH1:28:191:28:194:13 14.2715sen861NIDRUM
35.2363HACKENS Yannick41BELTSV ALEMANNIA A1:28:291:28:334:13 14.2312ve1857EUPEN
36.2361MARCHAL Yves29BEL1:28:461:28:494:14 14.1916sen853EUPEN
37.2349JACOBS Mario36BELULTRAS1:28:471:28:504:14 14.1917sen852
38.2287CULLOP Paul50BELENJAMBEE1:28:501:28:514:14 14.186ve2851BRUXELLES
39.2371SNOEKS Jos50BELVACH1:28:471:28:564:15 14.177ve2850EKSEL
40.2064JAMAR Christophe30BEL1:28:531:29:014:15 14.1618sen848WAIMES
41.2047VANHERCK Kris36BEL1:29:011:29:044:15 14.1519sen846DEURNE
42.2323BOUMANS Eric32BEL1:29:031:29:124:15 14.1320sen844VERVIERS
43.2234JACQMIN Damien32BEL1:29:241:29:254:16 14.0921sen839BASTOGNE
44.2260ROZEIN Dieter45BELSC BÜTGENBACH1:29:241:29:274:16 14.0913ve1838BÜTGENBACH
45.2019MERTENS Andy30BELTRIATHLON TEAM 1:29:451:29:484:17 14.0322sen833EUPEN
46.106LORGE Jean Marc45BELRONVAU1:30:081:30:134:18 13.9714ve1828EGHEZEE
47.2273THYS Ronny48BELVACH1:30:151:30:234:19 13.9415ve1826HASSELT
48.431MARTIN Eric48BEL1:30:211:30:244:19 13.9416ve1824WANDRE
49.2003BROUWIER Pierre59BELGRJ1:30:451:30:494:20 13.888ve2818GRAND-RECHAIN
50.2001FANDRES Gaby39BEL1:30:531:30:544:20 13.861dam816NIDRUM
51.2387THERER Gery21BEL1:31:011:31:054:21 13.8323sen813
52.2339PAASCH Daniel31BEL1:31:041:31:064:21 13.8324sen812LUXEMBOURG
53.2267SEURINCK Karel49BEL1:31:081:31:094:21 13.8317ve1810ZEMST
54.125FVAN DER ZWALMEN Sabine31BELUSBWMYSTERE1:31:081:31:094:21 13.822dam809LASNE
55.78DUTRIEUX Fernand40BELVELAINES1:31:441:31:444:23 13.7418ve1802BAUDOUR
56.2261SCHELD Urban47DEUTRIELKS TUS 08 1:32:021:32:054:24 13.6819ve1797SCHLEIDEN
57.2346MACKELS Daniel43BELSC BUTGENBACH1:32:101:32:154:24 13.6620ve1795
58.2384GERRETZ Dominik27BEL1:32:111:32:154:24 13.6625sen794
59.2259ROELANTS Pieter31BELHRC1:32:161:32:224:24 13.6426sen792KESSEL-LO
60.2336LINDEN Raphael47BELDÉCORAMA1:32:311:32:354:25 13.6121ve1788MALMEDY
61.2057MERO Thorsten38BEL1:32:481:32:504:26 13.5727sen784
62.2067MOTTET Marcel46BELFCHA1:32:401:33:004:26 13.5522ve1785HUY
63.2269SPOELHOUT Thierry41BEL1:32:581:33:014:26 13.5523ve1781BRAIVES
64.580HOMBROUX Marcel58BELHANUT JOG1:33:021:33:134:27 13.529ve2779MONTENAKEN
65.645CREMER Patrick53BELFCHA1:33:101:33:134:27 13.5210ve2776HANNUT
66.2298VAN LOOVEREN Frank50BELTDC1:33:201:33:244:27 13.4911ve2773
67.2046DE BEUCKELAER Eric45BEL1:33:261:33:284:28 13.4824ve1772BRECHT
68.2375EVRARD Marc39BEL1:34:061:34:134:30 13.3728sen763WANDRE
69.427VAN DER LINDEN Paul62BELRCNAMUR1:34:171:34:194:30 13.362ve3760MALONNE
70.758LAURENT Vincent41BELACBBS1:34:271:34:284:30 13.3425ve1757BIOURGE
71.2042LIESCH Freddy52LUXCAEG1:34:311:34:364:31 13.3212ve2756
72.194AUBERT Serge56BELDONDORGANES1:35:281:35:294:33 13.2013ve2745GERPINNES
73.2208BREUZIN Theophane22FRA1:35:351:35:384:34 13.1829sen742LIEGE
74.2006DENDAL Didier48BEL1:35:451:35:484:34 13.1526ve1740LIÈGE
75.2051WIELAND Christoph44BEL1:35:451:35:494:34 13.1527ve1739
76.265BOONEN Chris40BELAVN1:35:361:35:514:34 13.1528ve1740MEER
77.2381CELIS Paul56BELLIERMYLEM1:35:531:35:584:35 13.1314ve2736
78.2017FKANDITT Katja34DEUMÖNCHENGLADBACH1:35:581:35:594:35 13.133dam734KORSCHENBROICH
79.690LUPCIN Patrick54BELRCNAMUR1:36:021:36:184:36 13.0915ve2732PERWEZ
80.2359MELARD Jean Emile29BEL1:36:181:36:314:36 13.0630sen729B-4680 OUPEYE
81.46FOLIX Cheila48BELARCH1:36:471:36:494:37 13.012ai1722GOZIN
82.2052HANF Alain30BELTV NIDRUM1:36:471:36:514:37 13.0131sen721NIDRUM
83.2333HALMES Manuel26BELSC BUTGENBACH1:36:491:36:514:37 13.0132sen720BÜLLINGEN
84.2238KLINKENBERG Christian41BELHELOWA1:37:101:37:134:38 12.9629ve1715BAELEN
85.2271TEN HAAF Roland42NLD1:37:071:37:254:39 12.9330ve1715EIJSDEN
86.2263SCHOLL Michael35BEL1:37:331:37:384:39 12.9133sen709ELSENBORN
87.521RAEYMAEKERS Ludovic57BELBRABO1:37:371:37:414:40 12.9016ve2708EKEREN
88.593DEMOULIN Jose65BELBAIL RUN1:37:401:37:524:40 12.883ve3706EVREHAILLES
89.2065PINCKERS Francis49BELTDCH1:37:581:38:004:40 12.8631ve1702GEMMENICH
90.365DESCHUYTENEER Marc32LUXTORTUES1:38:211:38:254:42 12.8034sen697LUXEMBOURG
91.2294VETS Paul53BELLIERKANAALLOPERS1:38:211:38:274:42 12.8017ve2697BROECHEM
92.331BOUCHET Davy25BELHRC1:38:321:38:374:42 12.7835sen694IZEL
93.2356WEINBRENNER Daniel43BEL1:38:361:38:424:42 12.7732ve1692
94.184LEFEBVRE Daniel56BELETCHIEVR1:38:391:38:504:43 12.7518ve2691CHIEVRES
95.2358BALTUS Daniel32BEL1:38:401:38:524:43 12.7436sen690
96.802NEUMANS Jean Luc33BELGERP & CO1:38:391:38:564:43 12.7437sen689CHARLEROI
97.2039WEYNAND Helmut68BELLAUFTEAM ROCHER1:38:591:39:034:43 12.724ve3684BUELLINGEN
98.2329ACUSILAS Jean-Yves41BELRCNAMUR1:39:061:39:104:44 12.7133ve1682JAMBES (NAMUR)
99.2392LEROY Aldo42BEL1:39:131:39:184:44 12.6934ve1680STRAIMONT
100.695DE DAPPER David38BELCSFMYSTERE1:39:221:39:234:44 12.6838sen678BRUXELLES
101.2326FLECOQ Francoise50BEL1:39:411:39:464:46 12.631ai2673
102.2337TOUSSAINT Amaury35BELBAIL RUN1:39:351:39:464:46 12.6339sen673NIVELLES
103.2299DELBAERE Rene53BEL1:40:041:40:084:47 12.5919ve2668BERCHEM
104.2279VENNEKENS Rudi45BELVMOL1:40:081:40:164:47 12.5735ve1666GEEL
105.2301VAN HOOF Eddy50BELLIERKANAALLOPERS1:40:121:40:194:47 12.5620ve2664BEGIJNENDIJK
106.2385BERTHOLD Wulff57BEL1:40:181:40:224:47 12.5621ve2662
107.2354DE DEKEN Olivier25BEL1:40:021:40:224:47 12.5640sen664
108.2309BONGENBERG Paul44BEL1:40:441:40:484:48 12.5036ve1656
109.134GILON Marc48BELRCNAMUR1:40:511:41:034:49 12.4737ve1654NAMUR
110.827RENAUX Olivier38BEL1:40:561:41:094:49 12.4641sen652HENSIES
111.2032SCHNEIDER Roland35BELTV NIDRUM1:41:081:41:114:50 12.4542sen649NIDRUM
112.404TILBURGS Frank44BELAVN1:41:111:41:174:50 12.4438ve1648MEER
113.135LEFORT Jean Marie60BELENJAMBEE1:41:061:41:184:50 12.445ve3648GLABAIS
114.2353LEJEUNE Gregory31BEL1:41:251:41:304:50 12.4143sen643VIELSALM
115.2049LANNOYE Dirk38BEL1:41:311:41:364:51 12.4044sen641HOBOKEN
116.2059DELVAUX Philippe48BELSMAC1:41:261:41:364:51 12.4039ve1642JAMBES
117.601DEMOULIN Laurent38BELBAIL RUN1:41:401:41:514:51 12.3745sen638SAINT SERVAIS
118.2227GREGOIRE Thibaud15BEL1:42:021:42:214:53 12.312esp633VEDRIN
119.2374PIRSON Fabien38BEL1:42:141:42:224:53 12.3146sen631
120.904VAN LANGENHOVE Denis34BEL1:42:231:42:234:53 12.3147sen628FLORENNE
121.189MARIEN Rik62BELCAGB1:42:241:42:334:53 12.296ve3627HASSELT
122.535ROMBAUX Marc51BELCSDY1:42:261:42:384:54 12.2822ve2626LOUVAIN LA NEUVE
123.738WILLEMS Lucas50BEL1:42:351:42:414:54 12.2723ve2623SAINT MARTIN
124.22DE MASI Gianni58BELFLEU1:42:361:42:414:54 12.2724ve2623WANFERCEE BAULET
125.2209BROUWIER Michael35BELHERV1:42:351:42:454:54 12.2648sen622GRAND-RECHAIN
126.2220FDURU Martine35BELHERV1:42:361:42:454:54 12.264dam621HERVE
127.2386BOEMER Mirko33BEL1:42:351:42:494:54 12.2649sen620
128.2251NOEL Frederic36BELACLO1:42:541:43:004:55 12.2350sen616LE ROEULX
129.218FALEXANDRE Françoise56BEL1:42:531:43:014:55 12.232ai2615VEDRIN
130.623PISCART Pierre51BELMOHAFORESTIERE1:43:011:43:074:55 12.2225ve2613HAVRE
131.2056ONINCKX Louis66BEL1:43:071:43:134:55 12.217ve3611
132.923CEULEMANS Nicolas41BELANTILOB1:43:021:43:134:55 12.2140ve1611INCOURT
133.82CHARLIER Michel41BELRTBRA1:43:141:43:204:56 12.2041ve1608REMICOURT
134.737DE PESSEMIER Michel54BELACG1:43:181:43:224:56 12.1926ve2606BRAKEL
135.867FVAN ORSHOVEN Godele50BEL1:43:181:43:224:56 12.193ai2605LEUVEN
136.2053NAGEL Norbert45BEL1:43:161:43:234:56 12.1942ve1605NEU-MORESNET
137.2340HERMANN Daniel43BEL1:43:191:43:284:56 12.1843ve1603KETTENIS
138.2028FSCHERER Leslie47LUX1:43:361:43:444:57 12.153ai1600HELLANGE
139.2343KOHNENMERGEN Gerd42BEL1:43:381:43:454:57 12.1544ve1598AMEL
140.203ALBERT Michel50BELRONVAU1:43:431:43:484:57 12.1427ve2597LIERNU
141.272CARDON Alain50BEL1:43:351:43:534:57 12.1328ve2597NIVELLES
142.842LAURENT Julien18BELACBBS1:44:021:44:104:58 12.103esp591BIOURGE
143.992LETHE Vincent51BELRONVAU1:44:031:44:184:58 12.0829ve2590TOURINNES-SAINT-LAMBERT
144.2060PAULS Guido44BELSV BERGWACHT RO1:44:051:44:204:59 12.0845ve1589
145.2377VERCRUYSSE Sebastien36BEL1:44:091:44:244:59 12.0751sen588
146.2345MAAS Stijn34BEL1:44:201:44:254:59 12.0752sen585HAMONT-ACHEL
147.862GIROULLE Lionel35BEL1:44:251:44:314:59 12.0653sen583WANFERCÉE BAULET
148.2327HORNAY Olivier39BELETHIAS1:44:131:44:344:59 12.0554sen584
149.855KACIMI Roberto48BELSERSERUNNER1:44:271:44:394:59 12.0446ve1581SERAING
150.2282FVON AGRIS Christa46BELERTK1:44:241:44:415:00 12.044ai1580WELKENRAEDT
151.2270FTEN HAAF Jenny38NLD1:44:331:44:515:00 12.025dam578EIJSDEN
152.2364DETHIER Alain Elisabeth47BEL1:44:441:44:545:00 12.0147ve1575VERVIERS
153.2362GILET Maurice Francis59BEL1:44:441:44:545:00 12.0130ve2574VERVIERS
154.833PISVIN Miguel39BEL1:44:321:44:575:00 12.0155sen575ROTHEUX-RIMIERE
155.2222FFATZAUN Danielle44BELLACE1:44:571:44:595:00 12.005ai1570KETTENIS
156.499LAURENT Philippe45BELBAIL RUN1:44:531:45:045:01 11.9948ve1570YVOIR
157.686VAN ONACKER Michael36BELADDM1:45:061:45:185:01 11.9756sen567LESSINES
158.2004BRÜLS Gerd34BEL1:45:021:45:255:02 11.9557sen567LONTZEN
159.2040WIJNANDS Hub47NLD1:45:381:45:405:02 11.9349ve1560HEERLEN
160.2012HERMANN Sascha38BEL1:45:431:45:565:03 11.9058sen558BETTEMBOURG
161.2379JUDEX Jean-Michel48BELRCNAMUR1:45:381:45:565:03 11.8950ve1558
162.2351FTHEISSEN Manuela41BEL1:45:511:45:565:03 11.896ai1555
163.670DELIEUX Christophe43BELBAIL RUN1:45:521:46:025:03 11.8851ve1554EVREHAILLES
164.2357PLUMACHER Thierry33BEL1:46:081:46:225:04 11.8559sen550
165.2321VOIGTLANDER Thomas34BEL1:46:291:46:385:05 11.8260sen546
166.583FDION Chantal60BELCEPAL1:46:431:46:445:05 11.811ai3543KRAAINEM
167.585MOENS Alain57BELCEPAL1:46:431:46:445:05 11.8131ve2542KRAAINEM
168.2344PONCIN Christian52BELCÉLESTES1:46:461:46:555:06 11.7932ve2541
169.2332NEUMANN Frank44BELTSV ALEMANNIA A1:46:331:47:005:06 11.7852ve1542
170.2372FMEURENS Violaine28BEL1:46:411:47:045:06 11.776dam540
171.2230FHOLPER Nicole36BEL1:47:041:47:105:07 11.767dam535ST.VITH
172.2334JASPART Andre56BEL1:46:541:47:195:07 11.7433ve2536WAIMES
173.863FCOLGEN Kornelia42BELBELLEVAUX RUNNI1:47:171:47:245:07 11.737ai1531MALMEDY
174.2018LEIDER Roland46LUX1:47:171:47:265:07 11.7353ve1530ETTELBRUCK
175.2310KOLBE Udo46BEL1:47:171:47:355:08 11.7154ve1529
176.2314FMICHEL Marion Joséphine47BEL1:47:321:47:375:08 11.718ai1526SOUMAGNE
177.2239KÜPPER Walter58BELL.T. ROCHERATH1:47:381:47:425:08 11.7034ve2524ROCHERATH
178.2341SANDER Holger45DEU1:47:491:47:565:09 11.6855ve1522AACHEN
179.2211FCOENEN Chantal37BELCTH1:47:561:48:025:09 11.668dam519BEKKEVOORT
180.2275TUYLS Bruno56BEL1:47:551:48:025:09 11.6635ve2518BIERBEEK
181.2311FSADOWSKI Adtrid50BEL1:47:571:48:115:10 11.654ai2518
182.789FAUCON Michel47BELRCNAMUR1:48:081:48:215:10 11.6356ve1515NAMUR
183.2296OBBELS Paul61BELLIERKANAALLOPERS1:48:131:48:355:11 11.608ve3513
184.340FGONZALEZ MADRID Pilar45BELL'ENJAMBÉE1:48:281:48:415:11 11.599ai1509BRUXELLES
185.2033SMEETS Ronald43NLD1:48:521:48:545:12 11.5757ve1505XJ BRUNSSUM
186.2297SCHMETZ Philippe50BEL1:48:491:49:045:12 11.5536ve2504LIGE
187.577VAN BAVEL Jos53BELAVN1:48:561:49:115:12 11.5437ve2503MINDERHOUT
188.2231HONS Danny42BEL1:49:011:49:145:13 11.5458ve1501BAELEN
189.2324BONTEMS Christophe39BEL1:49:081:49:305:13 11.5161sen499FERNELMONT
190.2325DA CRUZ Jean55BEL1:49:101:49:315:13 11.5138ve2498NAMUR
191.2308FBONGENBERG Uta41BEL1:49:351:49:425:14 11.4910ai1493
192.2030FSCHIEFFER Christa60DEULT ALSDORF-OST1:49:461:49:535:14 11.472ai3490ÜBACH-PALENBERG
193.2226GILSON Raymond53BEL1:49:401:49:555:15 11.4639ve2490
194.745POMES Jean-Paul61BELHRC1:49:381:49:565:15 11.469ve3489NOBRESSART
195.812BATISTIC Patrick47BELRONVAU1:49:491:50:045:15 11.4559ve1487NALINNES
196.2216DEJAEGHERE Bernard38BELYAK1:49:551:50:125:15 11.4462sen485MEEFFE
197.2233HOUYOUX Regis34BEL1:50:031:50:145:15 11.4363sen483BOSSIÈRE
198.608ROSSI Stephane45BELSCBUTG1:50:141:50:175:16 11.4360ve1480ROBERTVILLE
199.2266SCHULZ Daniel34DEU1:50:111:50:235:16 11.4264sen480KÖLN
200.2312SADOWSKI Kurt53BEL1:50:101:50:245:16 11.4140ve2479
201.377SPRIMONT Olivier48BEL1:50:161:50:345:16 11.4061ve1477UCCLE
202.269NENNEN Arnaud48BELSMACSMAC1:50:291:50:395:17 11.3962ve1474GELBRESSEE
203.2255RELEKOM Olivier39BEL1:50:271:50:495:17 11.3765sen473HUY
204.2368WANSART Nicolas29BEL1:50:311:50:525:17 11.3766sen472
205.2010HANF Raymond61BEL1:50:501:50:555:17 11.3610ve3468BÜTGENBACH
206.2025REINARTZ Wilfried52DEULACE1:51:161:51:255:19 11.3141ve2463EUPEN
207.813PETIT Jean Luc46BEL1:51:161:51:265:19 11.3163ve1462LIEGE
208.2393THEUNISSEN Patrice45BEL1:50:561:51:325:19 11.3064ve1464SAINT-SERVAIS
209.2221FFACEN Beatrice52BELBELLEVAUX RUNNI1:51:291:51:365:19 11.295ai2458MALMEDY
210.2278VAN DELSEN Vincent43BEL1:51:191:51:365:19 11.2965ve1459ESPIERRES
211.2201ANDRES Michael33BEL1:51:301:51:405:20 11.2867sen456NAMUR
212.2382KOLP Vincent24BEL1:51:111:51:415:20 11.2868sen458
213.2338FDEDOYARD Marjory39BELERTK1:51:451:52:025:21 11.259dam452
214.2283WATHELET Stéphane43BELRIWA1:51:561:52:065:21 11.2466ve1450CORTIL-NOIRMONT
215.2328FDIEUDONNÉ Anne Bernadette40BELRCNAMUR1:51:531:52:115:21 11.2311ai1449NAMUR
216.2335WEYNAND Bernard50BELLE JOUR1:52:031:52:295:22 11.2042ve2447ROBERTVILLE
217.561HAINAUT Charles52BEL1:52:431:52:505:23 11.1743ve2439GERPINNES
218.2062ROBAYE Eddy41BELRCNRCNAMUR1:52:591:52:595:23 11.1567ve1436MAILLEN (ASSESSE)
219.2317WAMPACH Luc43BEL1:52:411:53:025:23 11.1568ve1438AMEL/AMBLÈVE
220.41FVAN GILS Inge36BELAVN1:52:501:53:045:24 11.1410dam436HOOGSTRATEN
221.400CHAVATTE Roger63BELACG1:52:531:53:075:24 11.1411ve3434SCHENDELBEKE
222.2302VROLIX Alain45BEL1:53:071:53:075:24 11.1469ve1431
223.2038VANHERCK Marcel59BEL1:52:381:53:085:24 11.1444ve2435HERSTAL
224.2390KAZMIERCZAK Eric51BELAMC1:52:181:53:235:24 11.1145ve2437SPRIMONT
225.405SCHOONBROODT Leon68BELEUPEN1:53:281:53:305:25 11.1012ve3425EUPEN
226.69FSCHRÖDER Cindy39BELHAMURABI1:53:291:53:435:25 11.0811dam424BERTEM
227.498HEYNDRICKX Jan49BELHAMURABI1:53:281:53:445:25 11.0870ve1424BERTEM
228.2252FNYSSEN Monique48BELERTK1:53:351:53:505:26 11.0712ai1422PLOMBIERES
229.2219DOME Eugène49BELERTK1:53:331:53:505:26 11.0771ve1421PLOMBIERES
230.2247MUNSTER Philippe50BEL1:53:011:53:565:26 11.0646ve2425LIÈGE
231.2347BOUHON Didier42BEL1:54:261:54:395:28 10.9972ve1411
232.820BIENFAIT Quentin33BEL1:54:211:54:405:28 10.9969sen411BRAY
233.2370PAULIS Rene35LUX1:54:321:54:445:28 10.9870sen408HOLDANGE
234.2264FSCHOLZEN Isabelle31BEL1:54:281:54:495:29 10.9712dam408SCHOENBERG
235.2262FSCHLEISS Tatjana34BEL1:54:291:54:505:29 10.9713dam407AMEL
236.569CLEMENT Serge51BELHRC1:54:471:55:035:29 10.9547ve2403HACHY
237.2313FDENIS Chantal40BELJCPMF1:54:481:55:065:29 10.9513ai1402
238.830TROQUAY Jean-Marie48BEL1:55:281:55:515:31 10.8873ve1396ARGENTEAU
239.2383MARX Joel21BEL1:55:561:56:025:32 10.8671sen390
240.2229HAEKENS Jean-Marie45BELB.J.C.1:56:121:56:235:33 10.8374ve1387BILZEN
241.2388CABAY Jean51BEL1:55:361:56:275:33 10.8248ve2391HERVE
242.755VAN HEULENBERGHE Frank55BEL1:56:231:56:425:34 10.8049ve2384GENT
243.2061SCHIRMER Karsten35BELHOEFEN1:56:291:56:445:34 10.7972sen382
244.2009FGRÖNERT Karin50DEU1:56:311:56:515:34 10.786ai2380DÜSSELDORF
245.2288RENAP Bert37BEL1:56:431:57:015:35 10.7773sen378ST.-ANTONIUS
246.2031SCHLOSSER Axel46DEUBRANDER SV1:56:481:57:105:35 10.7575ve1376AACHEN
247.368VIAENE Bernard66BELHERV1:56:491:57:145:35 10.7513ve3375HERVE
248.47FRANSSEN Ben51BELD TEAM1:57:091:57:145:35 10.7550ve2371FERNELMONT
249.2303FRINGS Jurgen47BEL1:57:091:57:175:36 10.7476ve1370
250.1HEINEN Henri67BELSERSERUNNER1:57:451:57:555:37 10.6914ve3364SERAING
251.190DELCAMPE Marc55BELFORESTIERE1:57:511:57:585:38 10.6851ve2362LE ROEULX
252.2024FREINARTZ Vera53BELLACE1:57:561:58:045:38 10.677ai2361EUPEN
253.2044HAAS Joachim54BEL1:58:051:58:215:39 10.6552ve2358
254.2350FLORENCE Cedric31BEL1:58:101:58:345:39 10.6374sen357TROOZ
255.428FONTAINE Jacques54BELFAVV-AFSCA1:58:251:58:375:39 10.6253ve2354LIÈGE
256.2373FVIAENE Marie291:58:271:58:515:40 10.6014dam352
257.798FDEBONI Malorie27BELCSFMYSTERE1:58:451:58:535:40 10.6015dam349BRUXELLES
258.613SCHOEPS Yvan73BEL1:58:471:58:595:40 10.591ve4348BRAINE-LE-COMTE
259.2218FDIFFELS Brigitte50BEL1:58:541:59:035:41 10.588ai2346MALMEDY
260.2355THIJSSEN Peter51NLD1:59:582:00:005:43 10.5054ve2335AX BERG EN TERBLIJT
261.748JASSOGNE Claudy57BELRCNAMUR1:59:402:00:005:43 10.5055ve2337NAMUR
262.91GEERAERTS Jos51BELCSFMYSTERE1:59:512:00:085:44 10.4956ve2335BUIZINGEN
263.888RUBINO Michel51BELUACRRTC1:59:572:00:285:45 10.4657ve2333CHATELET
264.356SAUCIN Luc50BELRRTC1:59:572:00:285:45 10.4658ve2332CHATELET
265.2360BOVY Sylvain2:00:162:00:345:45 10.451xxx328
266.2391HICK Patrick31BEL2:00:182:00:435:45 10.4475sen327
267.2246MIGNOT Benoit32BEL2:01:132:01:225:47 10.3876sen318SAIVE
268.2002FBÖHNKE Susan39DEU2:01:112:01:335:48 10.3716dam318ZÜLPICH
269.2322DEPETTER Roger61BEL2:01:272:01:415:48 10.3515ve3315
270.880FBOMBLED Laurence44BELBAIL RUN2:01:462:01:575:49 10.3314ai1311GODINNE
271.2367DARPINO Angelo40BEL2:01:562:02:155:50 10.3177ve1309ZUTENDAAL
272.459LEJEUNE Christian62BEL19502:02:042:02:385:51 10.2716ve3306VERVIERS
273.754LARMINIER Claude57BELSERSERUNNER2:02:522:03:005:52 10.2459ve2299LIEGE
274.2048FBERTRAM Maria65DEU2:03:012:03:095:52 10.233ai3297BAESWEILER
275.2342GARBAY Yannick45BEL2:02:502:03:115:52 10.2378ve1297
276.55ROBERTI DE WINGHE Max56BELLACRONVAU2:03:032:03:335:53 10.2060ve2295ARCHENNES
277.210DALCQ Jean-Claude48BELRONVAU2:03:052:03:335:53 10.2079ve1293WAVRE
278.2068BERNARD Eric50BEL2:03:082:03:365:54 10.1961ve2292LIEGE
279.2290DE PREKER Charris47BEL2:03:262:03:455:54 10.1880ve1289
280.2291VAN DOREN Marc49BEL2:03:262:03:455:54 10.1881ve1288
281.2277VAESEN Gilbert58BEL2:03:402:03:555:55 10.1762ve2285OUPEYE
282.889FDUCHENE Michelle45BELSMAC2:03:372:03:585:55 10.1615ai1284JAMBES
283.410COLLIN Roger63BELSMAC2:03:382:03:585:55 10.1617ve3283SAINT SERVAIS
284.700FIVET Alain58BEL2:03:462:04:055:55 10.1563ve2281WEPION
285.2236JANSSENS Dirk48BELDILBE2:03:452:04:115:55 10.1582ve1280DILBEEK
286.186FHILLEN Hilde43BELAVN2:04:062:04:215:56 10.1316ai1277MEER
287.155AKKERMANS Francois61BELBRASS2:04:072:04:275:56 10.1318ve3276BRASSCHAAT
288.59LIEGEOIS J.Louis59BELLAC2:04:112:04:355:56 10.1164ve2274HEVERLEE
289.424DRIESSENS Pierre64BELSERSERUNNER2:04:262:04:405:57 10.1119ve3271SERAING
290.2248FNAEGELS Christine40BEL2:04:322:04:425:57 10.1017ai1269WEERDE
291.2029FSCHERER Simone53LUXLAFTREFF LEIDEL2:04:452:04:565:57 10.099ai2267HELLANGE
292.2293FBONHEMME Laurence40BEL2:04:502:05:065:58 10.0718ai1265
293.2034STEFFENS Gerd48DEU2:05:022:05:085:58 10.0783ve1262DÜREN
294.208BOUTEFEU Jacques51BELESMRRTC2:04:502:05:205:59 10.0565ve2263MONTIGNIES-SUR-SAMBRE
295.784BIENFAIT Benjamin28BEL2:05:162:05:355:59 10.0377sen259QUEVY LE PETIT
296.2043GALES Lucien59LUXCAEG2:05:302:05:416:00 10.0366ve2256WELLENSTEIN
297.2243FMATTEUCCI Hélène42BEL2:05:452:05:546:00 10.0119ai1253MALMEDY
298.166HOUNJE Freddy57BEL2:06:382:06:526:03 9.9367ve2244AUBEL
299.3001LEYSSENS Jan53BEL2:07:182:07:186:04 9.9068ve2238HEUSDEN
300.2330OLIVIER Alain53BELBESIX2:07:042:07:206:04 9.9069ve2239
301.632MAINIL Michel62BELMSF2:07:112:07:346:05 9.8820ve3237HAINE-ST-PIERRE
302.638TITART Paul50BELRCBESM2:07:342:08:006:06 9.8470ve2233BRUXELLES
303.2319FSCHMITT Claudia48BEL2:08:122:08:266:07 9.8120ai1228
304.2318SCHMITT Olaf43BEL2:08:152:08:296:08 9.8184ve1226
305.2305FTHOELEN Vinciane45BEL2:08:212:08:336:08 9.8021ai1224
306.797FSTIENON Catherine40BELCSFMYSTERE2:09:322:09:406:11 9.7222ai1214UCCLE
306.316VANGERMEERSCH Roland64BELACLO2:09:282:09:406:11 9.7221ve3214MANAGE
308.740CHEVALIER Jean-Paul53BELETCHIEVR2:09:182:09:416:11 9.7271ve2214ATH
309.865SANTOCONO Jerome50BELACLOAMIS FB2:09:512:10:046:12 9.6972ve2208MORLANWELZ
310.182FBAETEN Edith51BELRCNAMUR2:10:082:10:256:13 9.6610ai2205NAMUR
311.123BAUWIN Philippe62BEL2:10:362:10:586:15 9.6222ve3201NAMUR
312.2268SIECKELINCK Kevin28BEL2:11:292:11:486:17 9.5678sen193MECHELEN
313.2054DE BRABANTER Eric48BEL2:11:332:11:546:17 9.5585ve1191
314.2286FMORRIS Nicola-Elizabeth51GBRENJAMBÉE2:11:572:12:116:18 9.5311ai2187BRUXELLES
315.2265FSCHRÖDER Anita41BEL2:12:282:12:426:20 9.5023ai1182ROCHERATH
316.2280FVILZ Tanja38BEL2:12:292:12:426:20 9.5017dam181ROCHERATH
317.448ROMAIN Bernard54BELDELT LONG2:12:342:12:586:20 9.4873ve2180CHASTRE
318.2210FCAT Carine37BEL2:12:392:12:596:20 9.4818dam178LA LOUVIÈRE
319.2206BONSIGNORE Vincent52BELZEN-ITUDE2:12:402:13:006:20 9.4774ve2177LA LOUVIÈRE
320.2274TRICOT Alain38BELZEN-ITUDE2:12:402:13:006:20 9.4779sen176MORLANWELZ
321.267FSALENS Lia46BEL2:12:382:13:046:21 9.4724ai1176WOLVERTEM
322.2066FDANNEMARK Sylvia52BEL2:12:512:13:156:21 9.4612ai2173
323.688FFAGNANT Martine52BELRCNAMUR2:13:012:13:186:21 9.4513ai2171PERWEZ
324.2213DE DEKEN Lucas57BEL2:13:122:13:316:22 9.4475ve2169ANTWERPEN
325.2214DE DEKEN Marc55BEL2:13:112:13:316:22 9.4476ve2168WOMMELGEM
326.2232FHÖTTE Bettina40DEU2:13:182:13:356:22 9.4325ai1166AACHEN
327.2205FBÖKER Alexa39DEU2:13:242:13:426:22 9.4219dam164AACHEN
328.2366FBONNET Dorothée45BELPRFM2:14:212:14:426:25 9.3526ai1156ROUCOURT
329.2215FDE RUYCK Hilde45BELACKOACKO2:14:332:14:466:26 9.3527ai1153EVERBERG
330.113MASSART Victor58BELACLO2:14:502:15:036:26 9.3377ve2150COUILLET
331.2369MELARD Michel57BEL2:14:572:15:146:27 9.3278ve2148
332.7FHENNERESSE Isabelle41BELJCCS2:14:472:15:186:27 9.3128ai1149GEDINNE
333.10FHERCOT Marie-Astrid54BELUACRRTC2:14:482:15:186:27 9.3114ai2148CHATELET
334.996DEKKERS Daniel76BEL2:17:282:17:316:33 9.162ve4126LASNE
335.796FVERLAINE Catherine51BELSERSERUNNER2:17:332:17:556:35 9.1415ai2125BONCELLES
336.13AUDRIT Philippe50BELSERSERUNNER2:17:332:17:556:35 9.1479ve2124BONCELLES
337.89FVANHUFFELEN Josseline57BELAXA TEAM2:18:242:18:516:37 9.0716ai2117MELLERY
338.635PANNEELS Jean-Jacques59BELAXA RUN TEA2:18:222:18:516:37 9.0780ve2116MELLERY
339.440ETIENNE Christian60BELRCNAMUR2:21:282:21:486:46 8.8923ve392LEUZE-LONGCHAMPS
340.2050PAULUS Benoit26BELRCNAMUR2:21:342:21:506:46 8.8880sen91SAINT-SERVAIS
341.2204BODET Michel54BELHRC2:22:222:22:406:48 8.8381ve284ROSSIGNOL
342.628FTULCINSKY Helene52BELENJAMBEE2:22:362:22:536:49 8.8217ai281WOLUWE SAINT LAMBERT
343.2306FPAULUS Rolande53BELJCHSH2:23:582:24:216:53 8.7318ai270HAM-SUR-HEURE-NALINNES
344.2307MABILLE Joel44BELJCHSH2:23:582:24:216:53 8.7386ve170
345.2245FMERTENS Magda68BEL2:25:202:25:316:56 8.664ai359WEERDE
346.2249FNAETS Patricia41BEL2:25:492:25:586:58 8.6329ai154MECHELEN
347.2295WUYTS Leon66BELLIERKANAALLOPERS2:25:252:26:096:58 8.6224ve356
348.2250FNGUYEN DANG Delphine38BEL2:26:292:26:457:00 8.5920dam48SAIVE
349.54FTILLY Georgette50BELETCHIEVR2:26:402:27:037:01 8.5719ai246CHIEVRES
350.92DEFAYS Pol82BELSCBUTG2:27:122:27:177:01 8.563ve441LONGFAYE
351.2331FSCHEIDT Diana38BELROHREN2:27:122:27:337:02 8.5421dam40
352.249PIRSON Patrice54BELJCCS2:29:002:29:257:07 8.4382ve227GEDINNE
353.2055NYSSEN Siegfried55BEL2:29:252:29:527:09 8.4183ve223LONTZEN
354.869GENOT Yves55BELENJAMBEE2:30:052:30:217:10 8.3884ve217BRUXELLES
355.661FPELLOILE Veronique46BELFORESTIERE2:32:032:32:037:15 8.2930ai18LE ROEULX
356.2316FHENNING Justine22BEL2:31:482:32:117:15 8.2822dam7
357.65FSEGHERS Rita64BEL2:34:412:34:507:23 8.145ai36ZOTTEGEM
358.2304DEMOLLIN Marc562:35:112:35:247:24 8.1185ve25
359.2389FCABAY Marie-Anne55BEL2:37:572:38:217:33 7.9620ai24HERVE
360.341FLEGRAND Josette71BEL2:41:072:41:267:42 7.811ai43BRAINE-LE-COMTE
361.2300LISMONT Marc44BELRCT2:49:252:49:328:05 7.4387ve12TIENEN
362.50FWINDERICKX Louise77BELDAMPFORESTIERE3:15:473:15:559:20 6.432ai41ROCHEFORT
363.281MARRACCINI Lorenzo74BEL3:54:473:54:4711:11 5.374ve41SINT-STEVENS-WOLUWE
DSQ124LE CHARLIER Baudouin61BEL1:37:461:45:56ve3NAMUR
DNF2320BACKES Reinhold55BELAC EIFELve2
DNF2315FHENNING Adele31BELdam
DNF445RUELLE Jean39BELETCHIEVRsenWEZEMBEEK-OPPEM
DNF: abandon; DSQ: disqualifié; Vitesse en km/h
Page: [1]